createdAt,value
2017-12-17T00:00:05.871Z,27.8
2017-12-17T00:02:05.682Z,27.8
2017-12-17T00:04:05.516Z,27.8
2017-12-17T00:06:08.427Z,27.8
2017-12-17T00:08:05.211Z,27.8
2017-12-17T00:10:06.013Z,27.7
2017-12-17T00:12:05.878Z,27.7
2017-12-17T00:14:05.634Z,27.7
2017-12-17T00:16:07.948Z,27.7
2017-12-17T00:18:05.954Z,27.7
2017-12-17T00:20:05.243Z,27.7
2017-12-17T00:22:07.659Z,27.7
2017-12-17T00:24:05.421Z,27.5
2017-12-17T00:26:10.299Z,27.7
2017-12-17T00:28:05.311Z,27.7
2017-12-17T00:30:05.079Z,27.7
2017-12-17T00:32:08.456Z,27.5
2017-12-17T00:34:05.270Z,27.5
2017-12-17T00:36:06.043Z,27.7
2017-12-17T00:38:05.868Z,27.7
2017-12-17T00:40:10.941Z,27.5
2017-12-17T00:42:05.747Z,27.7
2017-12-17T00:44:10.743Z,27.5
2017-12-17T00:46:08.055Z,27.6
2017-12-17T00:48:05.905Z,27.5
2017-12-17T00:50:10.727Z,27.5
2017-12-17T00:52:05.681Z,27.5
2017-12-17T00:54:13.115Z,27.5
2017-12-17T00:56:05.938Z,27.5
2017-12-17T00:58:05.747Z,27.6
2017-12-17T01:00:06.132Z,27.5
2017-12-17T01:02:05.944Z,27.5
2017-12-17T01:04:05.776Z,27.6
2017-12-17T01:06:05.156Z,27.5
2017-12-17T01:08:08.455Z,27.5
2017-12-17T01:10:05.284Z,27.5
2017-12-17T01:12:05.078Z,27.5
2017-12-17T01:14:05.908Z,27.5
2017-12-17T01:16:08.246Z,27.5
2017-12-17T01:18:05.313Z,27.5
2017-12-17T01:20:05.150Z,27.5
2017-12-17T01:22:08.452Z,27.5
2017-12-17T01:24:05.339Z,27.5
2017-12-17T01:26:05.204Z,27.5
2017-12-17T01:28:06.018Z,27.5
2017-12-17T01:30:07.860Z,27.5
2017-12-17T01:32:05.602Z,27.4
2017-12-17T01:34:07.907Z,27.5
2017-12-17T01:36:05.736Z,27.4
2017-12-17T01:38:05.504Z,27.4
2017-12-17T01:40:05.278Z,27.5
2017-12-17T01:42:06.189Z,27.3
2017-12-17T01:44:13.106Z,27.5
2017-12-17T01:46:05.908Z,27.5
2017-12-17T01:48:08.278Z,27.5
2017-12-17T01:50:08.168Z,27.5
2017-12-17T01:52:08.451Z,27.5
2017-12-17T01:54:05.232Z,27.5
2017-12-17T01:56:06.033Z,27.4
2017-12-17T01:58:08.340Z,27.3
2017-12-17T02:00:05.159Z,27.3
2017-12-17T02:02:05.955Z,27.4
2017-12-17T02:04:05.769Z,27.3
2017-12-17T02:06:07.628Z,27.3
2017-12-17T02:08:05.964Z,27.4
2017-12-17T02:10:05.263Z,27.4
2017-12-17T02:12:05.128Z,27.2
2017-12-17T02:14:10.946Z,27.2
2017-12-17T02:16:05.682Z,27.3
2017-12-17T02:18:08.210Z,27.4
2017-12-17T02:20:05.572Z,27.2
2017-12-17T02:22:15.971Z,27.2
2017-12-17T02:24:05.750Z,27.2
2017-12-17T02:26:05.497Z,27.2
2017-12-17T02:28:05.260Z,27.2
2017-12-17T02:30:06.159Z,27.2
2017-12-17T02:32:08.456Z,27.2
2017-12-17T02:34:12.790Z,27.2
2017-12-17T02:36:05.661Z,27.4
2017-12-17T02:38:06.040Z,27.2
2017-12-17T02:40:08.503Z,27.2
2017-12-17T02:42:10.387Z,27.2
2017-12-17T02:44:05.174Z,27.3
2017-12-17T02:46:13.549Z,27.2
2017-12-17T02:48:05.297Z,27.2
2017-12-17T02:50:05.054Z,27.2
2017-12-17T02:52:05.989Z,27.2
2017-12-17T02:54:08.323Z,27.2
2017-12-17T02:56:05.065Z,27
2017-12-17T02:58:05.902Z,27
2017-12-17T03:00:10.752Z,27
2017-12-17T03:02:05.511Z,27.2
2017-12-17T03:04:05.290Z,27
2017-12-17T03:06:06.054Z,27
2017-12-17T03:08:05.885Z,27
2017-12-17T03:10:05.693Z,27
2017-12-17T03:12:05.537Z,27.1
2017-12-17T03:14:05.275Z,27
2017-12-17T03:16:06.016Z,27
2017-12-17T03:18:06.021Z,27
2017-12-17T03:20:05.795Z,27
2017-12-17T03:22:05.531Z,27
2017-12-17T03:24:10.444Z,27
2017-12-17T03:26:05.341Z,27
2017-12-17T03:28:05.161Z,27.1
2017-12-17T03:30:05.979Z,27.1
2017-12-17T03:32:05.315Z,27.1
2017-12-17T03:34:07.655Z,27.1
2017-12-17T03:36:05.938Z,26.9
2017-12-17T03:38:05.727Z,27.1
2017-12-17T03:40:11.049Z,26.9
2017-12-17T03:42:05.959Z,27
2017-12-17T03:44:05.725Z,27.1
2017-12-17T03:46:05.460Z,26.9
2017-12-17T03:48:05.190Z,27
2017-12-17T03:50:10.954Z,26.9
2017-12-17T03:52:05.207Z,26.9
2017-12-17T03:54:08.034Z,26.9
2017-12-17T03:56:05.982Z,26.9
2017-12-17T03:58:15.934Z,27
2017-12-17T04:00:05.695Z,27
2017-12-17T04:02:05.470Z,26.9
2017-12-17T04:04:10.302Z,26.9
2017-12-17T04:06:05.117Z,27
2017-12-17T04:08:08.626Z,26.9
2017-12-17T04:10:05.533Z,26.9
2017-12-17T04:12:07.833Z,27
2017-12-17T04:14:05.150Z,27
2017-12-17T04:16:05.900Z,27
2017-12-17T04:18:05.880Z,26.9
2017-12-17T04:20:08.179Z,26.9
2017-12-17T04:22:11.062Z,26.9
2017-12-17T04:24:05.823Z,26.9
2017-12-17T04:26:07.620Z,27
2017-12-17T04:28:05.927Z,26.7
2017-12-17T04:30:05.701Z,26.7
2017-12-17T04:32:05.957Z,26.8
2017-12-17T04:34:05.825Z,26.8
2017-12-17T04:36:05.665Z,26.7
2017-12-17T04:38:08.013Z,26.8
2017-12-17T04:40:05.808Z,26.8
2017-12-17T04:42:05.649Z,26.8
2017-12-17T04:44:05.499Z,26.9
2017-12-17T04:46:05.389Z,26.8
2017-12-17T04:48:05.150Z,26.8
2017-12-17T04:50:07.950Z,26.8
2017-12-17T04:52:05.669Z,26.8
2017-12-17T04:54:06.119Z,26.8
2017-12-17T04:56:05.865Z,26.8
2017-12-17T04:58:05.622Z,26.7
2017-12-17T05:00:05.414Z,26.7
2017-12-17T05:02:05.234Z,26.8
2017-12-17T05:04:05.992Z,26.7
2017-12-17T05:06:08.290Z,26.8
2017-12-17T05:08:05.661Z,26.8
2017-12-17T05:10:05.974Z,26.7
2017-12-17T05:12:05.818Z,26.9
2017-12-17T05:14:08.139Z,26.8
2017-12-17T05:16:05.884Z,26.8
2017-12-17T05:18:05.851Z,26.8
2017-12-17T05:20:08.283Z,26.8
2017-12-17T05:22:06.033Z,26.8
2017-12-17T05:24:05.841Z,26.8
2017-12-17T05:26:05.608Z,26.8
2017-12-17T05:28:05.401Z,26.8
2017-12-17T05:30:05.331Z,26.8
2017-12-17T05:32:08.000Z,26.8
2017-12-17T05:34:10.871Z,26.8
2017-12-17T05:36:05.622Z,26.8
2017-12-17T05:38:05.418Z,26.9
2017-12-17T05:40:05.643Z,26.9
2017-12-17T05:42:05.400Z,26.9
2017-12-17T05:44:05.331Z,26.9
2017-12-17T05:46:05.150Z,26.8
2017-12-17T05:48:06.016Z,26.9
2017-12-17T05:50:05.747Z,27.1
2017-12-17T05:52:05.518Z,26.9
2017-12-17T05:54:07.914Z,26.9
2017-12-17T05:56:07.733Z,26.8
2017-12-17T05:58:05.467Z,27
2017-12-17T06:00:05.767Z,26.8
2017-12-17T06:02:07.610Z,26.8
2017-12-17T06:04:05.438Z,27
2017-12-17T06:06:07.816Z,26.8
2017-12-17T06:08:05.578Z,27
2017-12-17T06:10:08.032Z,26.8
2017-12-17T06:12:05.764Z,26.8
2017-12-17T06:14:05.489Z,26.9
2017-12-17T06:16:05.221Z,27
2017-12-17T06:18:05.300Z,26.8
2017-12-17T06:20:05.053Z,27
2017-12-17T06:22:08.429Z,26.9
2017-12-17T06:24:05.716Z,27
2017-12-17T06:26:10.520Z,26.9
2017-12-17T06:28:05.811Z,26.8
2017-12-17T06:30:05.627Z,26.8
2017-12-17T06:32:05.388Z,27
2017-12-17T06:34:10.193Z,26.9
2017-12-17T06:36:06.124Z,26.9
2017-12-17T06:38:08.394Z,26.9
2017-12-17T06:40:05.166Z,26.9
2017-12-17T06:42:05.496Z,26.9
2017-12-17T06:44:10.310Z,26.9
2017-12-17T06:46:15.419Z,26.9
2017-12-17T06:48:08.328Z,26.9
2017-12-17T06:50:05.740Z,26.9
2017-12-17T06:52:05.524Z,26.9
2017-12-17T06:54:10.953Z,26.9
2017-12-17T06:56:05.933Z,26.9
2017-12-17T06:58:05.844Z,26.9
2017-12-17T07:00:05.601Z,26.9
2017-12-17T07:02:05.318Z,26.9
2017-12-17T07:04:05.078Z,26.9
2017-12-17T07:06:05.902Z,26.9
2017-12-17T07:08:05.659Z,26.9
2017-12-17T07:10:05.963Z,26.9
2017-12-17T07:12:05.855Z,26.9
2017-12-17T07:14:07.687Z,26.8
2017-12-17T07:16:07.960Z,26.9
2017-12-17T07:18:06.001Z,26.9
2017-12-17T07:20:08.276Z,27
2017-12-17T07:22:06.009Z,27
2017-12-17T07:24:05.264Z,26.9
2017-12-17T07:26:06.025Z,26.9
2017-12-17T07:28:05.771Z,27
2017-12-17T07:30:05.623Z,27
2017-12-17T07:32:05.350Z,27
2017-12-17T07:34:10.630Z,27
2017-12-17T07:36:05.477Z,27
2017-12-17T07:38:05.198Z,27
2017-12-17T07:40:05.972Z,27
2017-12-17T07:42:05.714Z,27
2017-12-17T07:44:05.449Z,27
2017-12-17T07:46:08.343Z,27
2017-12-17T07:48:05.189Z,27
2017-12-17T07:50:13.537Z,27
2017-12-17T07:52:05.272Z,27
2017-12-17T07:54:06.037Z,27
2017-12-17T07:56:05.923Z,27
2017-12-17T07:58:05.681Z,27
2017-12-17T08:00:05.436Z,27
2017-12-17T08:02:07.691Z,27
2017-12-17T08:04:05.970Z,27
2017-12-17T08:06:05.839Z,27.1
2017-12-17T08:08:05.196Z,27.1
2017-12-17T08:10:16.050Z,27.1
2017-12-17T08:12:05.871Z,27.1
2017-12-17T08:14:05.622Z,27
2017-12-17T08:16:05.383Z,27.1
2017-12-17T08:18:05.917Z,27.1
2017-12-17T08:20:05.198Z,26.9
2017-12-17T08:22:05.968Z,27.1
2017-12-17T08:24:05.772Z,27.1
2017-12-17T08:26:05.537Z,26.9
2017-12-17T08:28:05.378Z,27
2017-12-17T08:30:07.715Z,27.1
2017-12-17T08:32:08.007Z,27
2017-12-17T08:34:05.289Z,27.2
2017-12-17T08:36:08.599Z,27
2017-12-17T08:38:05.670Z,27
2017-12-17T08:40:07.968Z,27.1
2017-12-17T08:42:05.669Z,26.9
2017-12-17T08:44:05.442Z,27.1
2017-12-17T08:46:08.245Z,26.9
2017-12-17T08:48:06.007Z,27.1
2017-12-17T08:50:08.270Z,27.1
2017-12-17T08:52:08.080Z,27.1
2017-12-17T08:54:05.402Z,27.1
2017-12-17T08:56:07.783Z,27.1
2017-12-17T08:58:05.515Z,27.1
2017-12-17T09:00:05.294Z,27.1
2017-12-17T09:02:07.569Z,27.1
2017-12-17T09:04:05.986Z,27.1
2017-12-17T09:06:05.791Z,27.1
2017-12-17T09:08:05.542Z,27.1
2017-12-17T09:10:07.854Z,27.1
2017-12-17T09:12:05.674Z,27
2017-12-17T09:14:08.092Z,27.1
2017-12-17T09:16:10.570Z,27.1
2017-12-17T09:18:05.058Z,27
2017-12-17T09:20:08.436Z,27
2017-12-17T09:22:08.285Z,27
2017-12-17T09:24:05.217Z,27.1
2017-12-17T09:26:05.958Z,27.1
2017-12-17T09:28:10.296Z,27
2017-12-17T09:30:05.569Z,27
2017-12-17T09:32:05.860Z,27.1
2017-12-17T09:34:05.643Z,27
2017-12-17T09:36:05.744Z,27
2017-12-17T09:38:05.479Z,27
2017-12-17T09:40:07.867Z,27
2017-12-17T09:42:10.740Z,27
2017-12-17T09:44:08.099Z,27
2017-12-17T09:46:07.964Z,27
2017-12-17T09:48:08.280Z,27
2017-12-17T09:50:08.052Z,27
2017-12-17T09:52:05.775Z,27
2017-12-17T09:54:05.606Z,27
2017-12-17T09:56:18.046Z,27
2017-12-17T09:58:05.850Z,27
2017-12-17T10:00:05.591Z,27
2017-12-17T10:02:05.860Z,27
2017-12-17T10:04:08.159Z,27
2017-12-17T10:06:05.933Z,27.1
2017-12-17T10:08:05.638Z,27
2017-12-17T10:10:05.406Z,27.1
2017-12-17T10:12:07.693Z,27.1
2017-12-17T10:14:07.964Z,26.9
2017-12-17T10:16:05.765Z,27.1
2017-12-17T10:18:07.903Z,27
2017-12-17T10:20:08.216Z,27
2017-12-17T10:22:06.004Z,27
2017-12-17T10:24:05.924Z,27
2017-12-17T10:26:07.800Z,27
2017-12-17T10:28:08.051Z,27.2
2017-12-17T10:30:05.317Z,27.2
2017-12-17T10:32:05.097Z,27.2
2017-12-17T10:34:05.864Z,27
2017-12-17T10:36:08.190Z,27
2017-12-17T10:38:06.014Z,27
2017-12-17T10:40:05.794Z,27.1
2017-12-17T10:42:05.737Z,27.1
2017-12-17T10:44:05.109Z,27.1
2017-12-17T10:46:05.965Z,27.1
2017-12-17T10:48:05.729Z,27.1
2017-12-17T10:50:05.494Z,27.2
2017-12-17T10:52:05.314Z,27.1
2017-12-17T10:54:07.692Z,27.1
2017-12-17T10:56:08.042Z,27.1
2017-12-17T10:58:07.904Z,27.1
2017-12-17T11:00:05.781Z,27.1
2017-12-17T11:02:08.056Z,27.1
2017-12-17T11:04:08.388Z,27
2017-12-17T11:06:05.800Z,27
2017-12-17T11:08:05.616Z,27
2017-12-17T11:10:05.490Z,27
2017-12-17T11:12:05.826Z,27.2
2017-12-17T11:14:05.604Z,27.1
2017-12-17T11:16:05.382Z,27
2017-12-17T11:18:05.354Z,27
2017-12-17T11:20:05.205Z,27
2017-12-17T11:22:08.546Z,27.2
2017-12-17T11:24:05.307Z,27
2017-12-17T11:26:05.043Z,27.2
2017-12-17T11:28:05.351Z,27.1
2017-12-17T11:30:05.120Z,27.1
2017-12-17T11:32:05.847Z,27.1
2017-12-17T11:34:10.711Z,27.1
2017-12-17T11:36:05.587Z,27
2017-12-17T11:38:05.330Z,27.1
2017-12-17T11:40:05.168Z,27.1
2017-12-17T11:42:06.023Z,27.2
2017-12-17T11:44:07.903Z,27.1
2017-12-17T11:46:10.771Z,27.1
2017-12-17T11:48:10.640Z,26.9
2017-12-17T11:50:05.441Z,27.1
2017-12-17T11:52:10.309Z,27.1
2017-12-17T11:54:05.117Z,27.1
2017-12-17T11:56:06.028Z,27.1
2017-12-17T11:58:08.397Z,27.1
2017-12-17T12:00:05.210Z,27.1
2017-12-17T12:02:06.020Z,27.1
2017-12-17T12:04:05.798Z,27.1
2017-12-17T12:06:05.522Z,27.1
2017-12-17T12:08:05.245Z,27.1
2017-12-17T12:10:08.554Z,27.1
2017-12-17T12:12:07.912Z,27.1
2017-12-17T12:14:05.198Z,27.1
2017-12-17T12:16:06.022Z,27.1
2017-12-17T12:18:05.995Z,27.1
2017-12-17T12:20:05.750Z,27.1
2017-12-17T12:22:10.556Z,27.1
2017-12-17T12:24:05.885Z,27.1
2017-12-17T12:26:05.759Z,27.2
2017-12-17T12:28:05.562Z,27.2
2017-12-17T12:30:05.366Z,27
2017-12-17T12:32:05.201Z,27
2017-12-17T12:34:08.493Z,27
2017-12-17T12:36:05.379Z,27
2017-12-17T12:38:07.664Z,27.1
2017-12-17T12:40:05.435Z,27.1
2017-12-17T12:42:05.222Z,27
2017-12-17T12:44:08.555Z,27.1
2017-12-17T12:46:05.315Z,27.1
2017-12-17T12:48:05.084Z,27.1
2017-12-17T12:50:05.372Z,27.1
2017-12-17T12:52:07.667Z,27.1
2017-12-17T12:54:05.964Z,27.1
2017-12-17T12:56:05.762Z,27.1
2017-12-17T12:58:08.082Z,27.1
2017-12-17T13:00:05.793Z,27.1
2017-12-17T13:02:05.567Z,27.1
2017-12-17T13:04:05.339Z,27.2
2017-12-17T13:06:12.701Z,27.1
2017-12-17T13:08:08.070Z,27.2
2017-12-17T13:10:05.899Z,27.1
2017-12-17T13:12:05.208Z,27.1
2017-12-17T13:14:06.023Z,27.1
2017-12-17T13:16:05.968Z,27.1
2017-12-17T13:18:05.904Z,27.1
2017-12-17T13:20:05.685Z,27.1
2017-12-17T13:22:05.496Z,27.1
2017-12-17T13:24:05.384Z,27.1
2017-12-17T13:26:05.789Z,27.1
2017-12-17T13:28:10.129Z,27.1
2017-12-17T13:30:08.428Z,27.1
2017-12-17T13:32:05.238Z,27.3
2017-12-17T13:34:13.120Z,27.2
2017-12-17T13:36:05.921Z,27.1
2017-12-17T13:38:05.642Z,27.2
2017-12-17T13:40:05.408Z,27.3
2017-12-17T13:42:06.231Z,27.3
2017-12-17T13:44:05.996Z,27.3
2017-12-17T13:46:08.319Z,27.2
2017-12-17T13:48:05.588Z,27.1
2017-12-17T13:50:08.466Z,27.2
2017-12-17T13:52:05.286Z,27.2
2017-12-17T13:54:05.555Z,27.2
2017-12-17T13:56:05.343Z,27.2
2017-12-17T13:58:05.160Z,27.2
2017-12-17T14:00:06.001Z,27.2
2017-12-17T14:02:10.821Z,27.2
2017-12-17T14:04:08.358Z,27.2
2017-12-17T14:06:07.668Z,27.2
2017-12-17T14:08:05.967Z,27.2
2017-12-17T14:10:05.777Z,27.2
2017-12-17T14:12:05.533Z,27.2
2017-12-17T14:14:05.301Z,27.2
2017-12-17T14:16:06.165Z,27.2
2017-12-17T14:18:07.660Z,27.2
2017-12-17T14:20:08.153Z,27.2
2017-12-17T14:22:05.951Z,27.2
2017-12-17T14:24:08.206Z,27.2
2017-12-17T14:26:05.616Z,27.2
2017-12-17T14:28:05.384Z,27.2
2017-12-17T14:30:05.111Z,27.2
2017-12-17T14:32:05.355Z,27.2
2017-12-17T14:34:05.385Z,27.2
2017-12-17T14:36:07.707Z,27.2
2017-12-17T14:38:05.093Z,27.2
2017-12-17T14:40:08.486Z,27.2
2017-12-17T14:42:05.343Z,27
2017-12-17T14:44:05.177Z,27.1
2017-12-17T14:46:06.006Z,27.2
2017-12-17T14:48:05.020Z,27.2
2017-12-17T14:50:08.313Z,27.2
2017-12-17T14:52:05.045Z,27.2
2017-12-17T14:54:05.775Z,27.2
2017-12-17T14:56:05.142Z,27.3
2017-12-17T14:58:08.460Z,27.1
2017-12-17T15:00:05.894Z,27.1
2017-12-17T15:02:05.634Z,27.2
2017-12-17T15:04:05.408Z,27.3
2017-12-17T15:06:05.180Z,27.1
2017-12-17T15:08:05.898Z,27.2
2017-12-17T15:10:05.709Z,27.2
2017-12-17T15:12:05.939Z,27.2
2017-12-17T15:14:05.672Z,27.2
2017-12-17T15:16:05.434Z,27.2
2017-12-17T15:18:05.996Z,27.2
2017-12-17T15:20:08.256Z,27.2
2017-12-17T15:22:06.108Z,27.2
2017-12-17T15:24:05.908Z,27.3
2017-12-17T15:26:05.213Z,27.3
2017-12-17T15:28:11.032Z,27.3
2017-12-17T15:30:05.407Z,27.2
2017-12-17T15:32:05.176Z,27.2
2017-12-17T15:34:05.974Z,27.3
2017-12-17T15:36:05.275Z,27.2
2017-12-17T15:38:07.669Z,27.2
2017-12-17T15:40:05.671Z,27.2
2017-12-17T15:42:10.476Z,27.5
2017-12-17T15:44:08.285Z,27.2
2017-12-17T15:46:06.065Z,27.2
2017-12-17T15:48:08.416Z,27.2
2017-12-17T15:50:05.384Z,27.2
2017-12-17T15:52:05.226Z,27.2
2017-12-17T15:54:06.067Z,27.3
2017-12-17T15:56:05.921Z,27.3
2017-12-17T15:58:05.806Z,27.3
2017-12-17T16:00:08.096Z,27.1
2017-12-17T16:02:05.352Z,27.1
2017-12-17T16:04:05.065Z,27.1
2017-12-17T16:06:13.418Z,27.1
2017-12-17T16:08:05.223Z,27.1
2017-12-17T16:10:05.980Z,27.1
2017-12-17T16:12:05.757Z,27.3
2017-12-17T16:14:05.534Z,27.3
2017-12-17T16:16:05.421Z,27.3
2017-12-17T16:18:05.450Z,27.3
2017-12-17T16:20:07.824Z,27.2
2017-12-17T16:22:08.187Z,27.2
2017-12-17T16:24:05.466Z,27.2
2017-12-17T16:26:05.264Z,27.2
2017-12-17T16:28:06.843Z,27.1
2017-12-17T16:30:05.681Z,27.2
2017-12-17T16:32:13.550Z,27.2
2017-12-17T16:34:05.385Z,27.2
2017-12-17T16:36:05.423Z,27.2
2017-12-17T16:38:05.403Z,27.4
2017-12-17T16:40:10.419Z,27.4
2017-12-17T16:42:05.527Z,27.4
2017-12-17T16:44:05.562Z,27.4
2017-12-17T16:46:05.945Z,27.5
2017-12-17T16:48:08.242Z,27.7
2017-12-17T16:50:05.271Z,27.7
2017-12-17T16:52:10.118Z,27.8
2017-12-17T16:54:07.653Z,28.2
2017-12-17T16:56:10.962Z,28.5
2017-12-17T16:58:12.266Z,28.5
2017-12-17T17:00:18.225Z,28.7
2017-12-17T17:02:05.337Z,28.7
2017-12-17T17:04:07.102Z,28.9
2017-12-17T17:06:05.741Z,28.9
2017-12-17T17:08:05.502Z,28.6
2017-12-17T17:10:05.331Z,28.5
2017-12-17T17:12:22.192Z,28.3
2017-12-17T17:14:06.413Z,28.5
2017-12-17T17:16:06.105Z,28.4
2017-12-17T17:18:07.677Z,28.4
2017-12-17T17:20:05.952Z,28.4
2017-12-17T17:22:05.719Z,28.5
2017-12-17T17:24:05.473Z,28.7
2017-12-17T17:26:05.562Z,28.6
2017-12-17T17:28:05.401Z,28.5
2017-12-17T17:30:05.194Z,28.7
2017-12-17T17:32:08.554Z,28.5
2017-12-17T17:34:08.133Z,28.6
2017-12-17T17:36:05.917Z,28.6
2017-12-17T17:38:05.180Z,29
2017-12-17T17:40:05.982Z,28.8
2017-12-17T17:42:05.747Z,28.9
2017-12-17T17:44:08.081Z,29.5
2017-12-17T17:46:05.868Z,29.5
2017-12-17T17:48:08.278Z,30
2017-12-17T17:50:06.124Z,30
2017-12-17T17:52:05.478Z,28.8
2017-12-17T17:54:07.845Z,28.6
2017-12-17T17:56:05.863Z,28.8
2017-12-17T17:58:07.777Z,28.8
2017-12-17T18:00:05.562Z,28.7
2017-12-17T18:02:05.566Z,28.7
2017-12-17T18:04:05.468Z,28.8
2017-12-17T18:06:05.181Z,28.6
2017-12-17T18:08:15.603Z,28.7
2017-12-17T18:10:07.952Z,28.6
2017-12-17T18:12:06.007Z,28.6
2017-12-17T18:14:05.767Z,28.5
2017-12-17T18:16:05.540Z,28.4
2017-12-17T18:18:08.041Z,28.4
2017-12-17T18:20:05.418Z,28.5
2017-12-17T18:22:07.765Z,28.3
2017-12-17T18:24:05.513Z,28.5
2017-12-17T18:26:05.288Z,28.3
2017-12-17T18:28:05.031Z,28.5
2017-12-17T18:30:05.289Z,28.4
2017-12-17T18:32:05.558Z,28.4
2017-12-17T18:34:12.970Z,28.4
2017-12-17T18:36:11.094Z,28.5
2017-12-17T18:38:05.838Z,28.5
2017-12-17T18:40:06.141Z,28.4
2017-12-17T18:42:05.998Z,28.5
2017-12-17T18:44:08.286Z,28.4
2017-12-17T18:46:05.047Z,28.4
2017-12-17T18:48:05.523Z,28.6
2017-12-17T18:50:05.314Z,28.6
2017-12-17T18:52:05.209Z,28.5
2017-12-17T18:54:05.162Z,28.5
2017-12-17T18:56:05.451Z,28.5
2017-12-17T18:58:10.243Z,28.6
2017-12-17T19:00:05.513Z,28.4
2017-12-17T19:02:07.799Z,28.5
2017-12-17T19:04:10.230Z,28.4
2017-12-17T19:06:05.206Z,28.4
2017-12-17T19:08:06.016Z,28.5
2017-12-17T19:10:05.308Z,28.5
2017-12-17T19:12:10.063Z,28.4
2017-12-17T19:14:08.388Z,28.6
2017-12-17T19:16:05.668Z,28.6
2017-12-17T19:18:05.659Z,28.4
2017-12-17T19:20:08.013Z,28.7
2017-12-17T19:22:07.861Z,28.6
2017-12-17T19:24:05.681Z,28.5
2017-12-17T19:26:05.428Z,28.6
2017-12-17T19:28:07.913Z,28.6
2017-12-17T19:30:05.993Z,28.6
2017-12-17T19:32:05.771Z,28.6
2017-12-17T19:34:05.664Z,28.7
2017-12-17T19:36:05.580Z,28.8
2017-12-17T19:38:07.814Z,28.8
2017-12-17T19:40:08.169Z,28.8
2017-12-17T19:42:05.446Z,28.9
2017-12-17T19:44:05.330Z,28.7
2017-12-17T19:46:05.131Z,29.2
2017-12-17T19:48:05.919Z,28.9
2017-12-17T19:50:05.749Z,29.1
2017-12-17T19:52:05.636Z,29.6
2017-12-17T19:54:05.917Z,28.9
2017-12-17T19:56:05.962Z,29
2017-12-17T19:58:05.285Z,28.8
2017-12-17T20:00:05.551Z,28.9
2017-12-17T20:02:05.369Z,28.8
2017-12-17T20:04:05.135Z,28.8
2017-12-17T20:06:06.990Z,28.8
2017-12-17T20:08:10.824Z,28.5
2017-12-17T20:10:05.911Z,28.5
2017-12-17T20:12:05.679Z,28.5
2017-12-17T20:14:05.526Z,28.7
2017-12-17T20:16:05.035Z,28.7
2017-12-17T20:18:06.075Z,28.7
2017-12-17T20:20:06.874Z,28.7
2017-12-17T20:22:05.654Z,28.5
2017-12-17T20:24:08.160Z,28.5
2017-12-17T20:26:05.755Z,28.5
2017-12-17T20:28:05.619Z,28.5
2017-12-17T20:30:05.940Z,28.6
2017-12-17T20:32:05.739Z,28.4
2017-12-17T20:34:06.010Z,28.5
2017-12-17T20:36:07.799Z,28.4
2017-12-17T20:38:05.795Z,28.4
2017-12-17T20:40:05.704Z,28.5
2017-12-17T20:42:05.963Z,28.5
2017-12-17T20:44:05.776Z,28.4
2017-12-17T20:46:05.474Z,28.4
2017-12-17T20:48:05.285Z,28.6
2017-12-17T20:50:13.672Z,28.6
2017-12-17T20:52:13.022Z,28.6
2017-12-17T20:54:05.800Z,28.6
2017-12-17T20:56:05.721Z,28.5
2017-12-17T20:58:13.621Z,28.5
2017-12-17T21:00:07.903Z,28.5
2017-12-17T21:02:05.111Z,28.3
2017-12-17T21:04:05.987Z,28.3
2017-12-17T21:06:08.397Z,28.5
2017-12-17T21:08:05.177Z,28.3
2017-12-17T21:10:05.985Z,28.5
2017-12-17T21:12:08.305Z,28.4
2017-12-17T21:14:05.106Z,28.4
2017-12-17T21:16:05.926Z,28.3
2017-12-17T21:18:05.864Z,28.5
2017-12-17T21:20:05.680Z,28.3
2017-12-17T21:22:07.950Z,28.4
2017-12-17T21:24:05.728Z,28.4
2017-12-17T21:26:05.588Z,28.5
2017-12-17T21:28:05.894Z,28.5
2017-12-17T21:30:05.608Z,28.4
2017-12-17T21:32:05.674Z,28.5
2017-12-17T21:34:05.404Z,28.4
2017-12-17T21:36:05.145Z,28.4
2017-12-17T21:38:05.938Z,28.4
2017-12-17T21:40:05.683Z,28.4
2017-12-17T21:42:07.970Z,29
2017-12-17T21:44:05.851Z,28.9
2017-12-17T21:46:05.277Z,29
2017-12-17T21:48:06.114Z,28.9
2017-12-17T21:50:10.945Z,29.2
2017-12-17T21:52:05.701Z,29.2
2017-12-17T21:54:08.011Z,28.8
2017-12-17T21:56:08.418Z,29.1
2017-12-17T21:58:05.681Z,29.1
2017-12-17T22:00:05.418Z,28.9
2017-12-17T22:02:05.334Z,28.8
2017-12-17T22:04:05.115Z,29.2
2017-12-17T22:06:05.874Z,29.2
2017-12-17T22:08:05.676Z,29.2
2017-12-17T22:10:05.478Z,29.1
2017-12-17T22:12:05.189Z,29
2017-12-17T22:14:08.030Z,29.1
2017-12-17T22:16:05.835Z,29.2
2017-12-17T22:18:08.382Z,28.8
2017-12-17T22:20:08.279Z,29.2
2017-12-17T22:22:05.617Z,29.2
2017-12-17T22:24:07.908Z,29
2017-12-17T22:26:05.683Z,29
2017-12-17T22:28:10.464Z,28.9
2017-12-17T22:30:05.274Z,28.8
2017-12-17T22:32:06.106Z,28.9
2017-12-17T22:34:05.881Z,29
2017-12-17T22:36:05.647Z,28.8
2017-12-17T22:38:08.036Z,28.8
2017-12-17T22:40:05.856Z,29
2017-12-17T22:42:05.241Z,28.8
2017-12-17T22:44:05.988Z,28.8
2017-12-17T22:46:05.727Z,28.8
2017-12-17T22:48:05.476Z,28.8
2017-12-17T22:50:05.903Z,28.8
2017-12-17T22:52:06.764Z,28.7
2017-12-17T22:54:05.106Z,28.5
2017-12-17T22:56:05.093Z,28.6
2017-12-17T22:58:05.872Z,28.8
2017-12-17T23:00:05.608Z,28.6
2017-12-17T23:02:05.379Z,28.7
2017-12-17T23:04:05.138Z,28.7
2017-12-17T23:06:13.057Z,28.4
2017-12-17T23:08:06.142Z,28.4
2017-12-17T23:10:05.873Z,28.4
2017-12-17T23:12:05.620Z,28.5
2017-12-17T23:14:05.381Z,28.6
2017-12-17T23:16:05.148Z,28.7
2017-12-17T23:18:05.100Z,28.6
2017-12-17T23:20:05.920Z,28.6
2017-12-17T23:22:08.205Z,28.6
2017-12-17T23:24:05.991Z,28.7
2017-12-17T23:26:05.713Z,28.5
2017-12-17T23:28:23.213Z,28.4
2017-12-17T23:30:08.492Z,28.4
2017-12-17T23:32:12.885Z,28.4
2017-12-17T23:34:05.584Z,28.4
2017-12-17T23:36:05.321Z,28.4
2017-12-17T23:38:05.131Z,28.4
2017-12-17T23:40:05.879Z,28.4
2017-12-17T23:42:10.667Z,28.4
2017-12-17T23:44:10.724Z,28.3
2017-12-17T23:46:05.459Z,28.3
2017-12-17T23:48:05.948Z,28.4
2017-12-17T23:50:08.319Z,28.3
2017-12-17T23:52:05.095Z,28.3
2017-12-17T23:54:05.847Z,28.2
2017-12-17T23:56:05.664Z,28.3
2017-12-17T23:58:05.441Z,28.3
